Time;durP1;ratioP1;P1;durP2;ratioP2;P2;SDS_P1;SDS_P2;PMS_P1;PMS_P2;Temp;Humidity;BMP_temperature;BMP_pressure;BME280_temperature;BME280_humidity;BME280_pressure;Samples;Min_cycle;Max_cycle;Signal;HPM_P1;HPM_P2
2024/04/15 00:00:14;;;;;;;5.03;3.80;;;13.00;61.80;;;;;;5369417;26;20970;-62
2024/04/15 00:02:40;;;;;;;5.77;4.60;;;12.90;61.70;;;;;;5369136;26;21047;-62
2024/04/15 00:05:06;;;;;;;8.43;4.57;;;12.90;61.80;;;;;;5370438;26;20226;-61
2024/04/15 00:07:32;;;;;;;5.30;4.50;;;12.80;62.00;;;;;;5371145;26;20230;-61
2024/04/15 00:09:58;;;;;;;6.80;4.40;;;12.80;62.00;;;;;;5369648;26;20672;-63
2024/04/15 00:12:24;;;;;;;5.60;5.00;;;12.80;62.00;;;;;;5367324;26;20475;-62
2024/04/15 00:14:49;;;;;;;6.80;5.07;;;12.70;62.10;;;;;;5362844;26;21175;-62
2024/04/15 00:17:15;;;;;;;9.57;6.03;;;12.70;62.30;;;;;;5369218;26;20270;-62
2024/04/15 00:19:40;;;;;;;8.23;4.87;;;12.60;62.50;;;;;;5368564;26;20335;-61
2024/04/15 00:22:06;;;;;;;4.87;4.33;;;12.60;62.80;;;;;;5367786;26;20343;-62
2024/04/15 00:24:32;;;;;;;10.23;4.80;;;12.60;62.80;;;;;;5371367;26;20301;-62
2024/04/15 00:26:58;;;;;;;6.50;5.23;;;12.60;62.90;;;;;;5367902;26;20766;-62
2024/04/15 00:29:24;;;;;;;5.80;4.53;;;12.50;62.80;;;;;;5370611;26;20225;-62
2024/04/15 00:31:50;;;;;;;7.10;5.07;;;12.50;63.00;;;;;;5368342;26;20459;-62
2024/04/15 00:34:15;;;;;;;9.00;4.93;;;12.40;63.00;;;;;;5362988;26;20280;-62
2024/04/15 00:36:44;;;;;;;6.03;4.40;;;12.40;63.20;;;;;;5370881;26;20226;-62
2024/04/15 00:39:10;;;;;;;9.73;5.00;;;12.40;63.40;;;;;;5368139;26;20576;-62
2024/04/15 00:41:35;;;;;;;8.03;4.53;;;12.40;63.60;;;;;;5369637;26;21025;-62
2024/04/15 00:44:01;;;;;;;6.43;4.70;;;12.40;63.30;;;;;;5368949;26;20233;-63
2024/04/15 00:46:27;;;;;;;7.03;4.67;;;12.40;63.50;;;;;;5369045;26;20246;-62
2024/04/15 00:48:53;;;;;;;11.70;4.50;;;12.40;63.70;;;;;;5364609;26;20314;-62
2024/04/15 00:51:21;;;;;;;7.07;4.70;;;12.40;64.60;;;;;;5368298;26;20596;-62
2024/04/15 00:53:50;;;;;;;8.43;4.80;;;12.40;64.70;;;;;;5370909;26;20826;-63
2024/04/15 00:56:19;;;;;;;6.30;5.00;;;12.40;64.90;;;;;;5372065;26;20456;-62
2024/04/15 00:58:45;;;;;;;7.13;4.80;;;12.30;65.40;;;;;;5370623;26;20577;-62
2024/04/15 01:01:12;;;;;;;10.03;4.70;;;12.30;65.90;;;;;;5373829;26;20463;-62
2024/04/15 01:03:38;;;;;;;5.73;4.50;;;12.30;66.40;;;;;;5372331;26;20233;-62
2024/04/15 01:06:05;;;;;;;6.03;4.60;;;12.30;66.60;;;;;;5371577;26;20520;-62
2024/04/15 01:08:31;;;;;;;6.20;4.37;;;12.30;67.40;;;;;;5366751;26;20515;-62
2024/04/15 01:10:57;;;;;;;6.03;4.57;;;12.30;68.10;;;;;;5374587;26;21045;-62
2024/04/15 01:13:23;;;;;;;6.57;5.00;;;12.30;68.10;;;;;;5374170;26;20870;-62
2024/04/15 01:15:55;;;;;;;7.47;4.63;;;12.30;67.40;;;;;;5368957;26;20575;-62
2024/04/15 01:18:21;;;;;;;4.90;4.40;;;12.30;67.60;;;;;;5373059;26;20215;-62
2024/04/15 01:20:47;;;;;;;8.90;4.33;;;12.30;68.20;;;;;;5374436;26;20523;-61
2024/04/15 01:23:16;;;;;;;9.80;4.80;;;12.30;69.20;;;;;;5369934;26;20273;-62
2024/04/15 01:25:41;;;;;;;6.30;3.90;;;12.40;69.90;;;;;;5372393;26;20817;-62
2024/04/15 01:28:07;;;;;;;9.40;5.00;;;12.40;70.10;;;;;;5366217;26;20472;-63
2024/04/15 01:30:32;;;;;;;12.30;4.70;;;12.40;70.30;;;;;;5375063;26;20234;-62
2024/04/15 01:32:58;;;;;;;11.27;5.03;;;12.40;70.20;;;;;;5374264;26;20882;-63
2024/04/15 01:35:24;;;;;;;11.57;5.30;;;12.40;69.60;;;;;;5373850;26;20359;-62
2024/04/15 01:37:50;;;;;;;6.33;5.00;;;12.40;69.10;;;;;;5368918;26;20343;-59
2024/04/15 01:40:16;;;;;;;6.07;4.40;;;12.40;68.90;;;;;;5370514;26;20494;-62
2024/04/15 01:42:41;;;;;;;8.23;5.30;;;12.40;69.10;;;;;;5375087;26;20282;-62
2024/04/15 01:45:07;;;;;;;6.10;4.43;;;12.40;69.50;;;;;;5368550;26;20238;-62
2024/04/15 01:47:35;;;;;;;6.03;4.53;;;12.40;69.90;;;;;;5370204;26;20221;-62
2024/04/15 01:50:01;;;;;;;7.77;4.67;;;12.50;70.20;;;;;;5370442;26;20230;-62
2024/04/15 01:52:27;;;;;;;5.80;4.77;;;12.50;70.20;;;;;;5373222;26;20460;-62
2024/04/15 01:54:53;;;;;;;6.40;4.70;;;12.50;70.60;;;;;;5367599;26;20548;-62
2024/04/15 01:57:18;;;;;;;8.93;5.33;;;12.50;69.90;;;;;;5372806;26;20797;-62
2024/04/15 01:59:44;;;;;;;9.10;5.13;;;12.50;69.60;;;;;;5373608;26;20288;-62
2024/04/15 02:02:09;;;;;;;8.03;4.90;;;12.60;70.30;;;;;;5370904;26;20233;-63
2024/04/15 02:04:35;;;;;;;6.60;5.20;;;12.60;70.00;;;;;;5373020;26;20269;-63
2024/04/15 02:07:00;;;;;;;9.73;4.93;;;12.60;69.50;;;;;;5371363;26;20230;-62
2024/04/15 02:09:26;;;;;;;9.27;5.50;;;12.60;69.60;;;;;;5370780;26;20230;-62
2024/04/15 02:11:52;;;;;;;10.73;4.50;;;12.70;69.60;;;;;;5369609;26;20285;-62
2024/04/15 02:14:17;;;;;;;7.20;5.33;;;12.70;69.70;;;;;;5375911;26;20310;-61
2024/04/15 02:16:43;;;;;;;7.73;5.20;;;12.80;70.20;;;;;;5364129;26;20259;-61
2024/04/15 02:19:08;;;;;;;9.33;4.87;;;12.80;70.70;;;;;;5366379;26;20241;-61
2024/04/15 02:21:34;;;;;;;11.07;4.93;;;12.90;70.60;;;;;;5366336;26;20297;-62
2024/04/15 02:23:59;;;;;;;6.03;4.57;;;13.00;70.90;;;;;;5370228;26;20276;-61
2024/04/15 02:26:25;;;;;;;6.03;4.37;;;13.00;71.00;;;;;;5361746;26;20720;-62
2024/04/15 02:28:50;;;;;;;8.83;4.77;;;13.10;70.90;;;;;;5368336;26;20338;-62
2024/04/15 02:31:16;;;;;;;7.80;4.90;;;13.10;71.00;;;;;;5370489;26;20230;-61
2024/04/15 02:33:42;;;;;;;8.50;5.07;;;13.20;71.30;;;;;;5374125;26;20627;-63
2024/04/15 02:36:07;;;;;;;7.93;4.93;;;13.20;71.50;;;;;;5371376;26;20239;-62
2024/04/15 02:38:33;;;;;;;7.83;5.23;;;13.20;71.80;;;;;;5366996;26;20380;-61
2024/04/15 02:40:58;;;;;;;11.57;5.03;;;13.20;72.40;;;;;;5366119;26;20264;-62
2024/04/15 02:43:24;;;;;;;8.30;5.03;;;13.20;73.70;;;;;;5370975;26;20716;-63
2024/04/15 02:45:49;;;;;;;9.73;5.00;;;13.20;74.10;;;;;;5372694;26;20332;-64
2024/04/15 02:48:18;;;;;;;6.90;4.93;;;13.10;74.80;;;;;;5372235;26;20218;-62
2024/04/15 02:50:44;;;;;;;7.90;4.83;;;13.10;75.30;;;;;;5371362;26;20703;-62
2024/04/15 02:53:09;;;;;;;6.10;4.77;;;13.10;76.10;;;;;;5371242;26;20460;-62
2024/04/15 02:55:35;;;;;;;9.23;4.70;;;13.10;77.10;;;;;;5373113;26;20237;-62
2024/04/15 02:58:00;;;;;;;6.40;3.97;;;13.10;78.80;;;;;;5367713;26;20226;-62
2024/04/15 03:00:26;;;;;;;5.97;5.03;;;13.10;80.00;;;;;;5373312;26;20230;-62
2024/04/15 03:02:52;;;;;;;5.80;4.10;;;13.10;81.10;;;;;;5372168;26;20678;-62
2024/04/15 03:05:17;;;;;;;6.83;4.47;;;13.20;82.60;;;;;;5370471;26;20295;-62
2024/04/15 03:07:47;;;;;;;6.13;4.67;;;13.20;84.20;;;;;;5370293;26;20261;-61
2024/04/15 03:10:12;;;;;;;5.20;4.30;;;13.20;90.30;;;;;;5372575;26;23681;-63
2024/04/15 03:12:38;;;;;;;7.60;4.87;;;13.30;91.30;;;;;;5369560;26;20520;-62
2024/04/15 03:15:03;;;;;;;5.93;3.70;;;13.50;91.70;;;;;;5370358;26;20226;-62
2024/04/15 03:17:29;;;;;;;5.47;3.93;;;13.50;91.80;;;;;;5373618;26;20252;-62
2024/04/15 03:19:55;;;;;;;5.17;3.40;;;13.60;91.90;;;;;;5368858;26;20222;-62
2024/04/15 03:22:21;;;;;;;4.90;3.60;;;13.70;91.60;;;;;;5371232;26;20230;-62
2024/04/15 03:24:50;;;;;;;4.93;4.10;;;13.80;91.60;;;;;;5371247;26;20290;-62
2024/04/15 03:27:19;;;;;;;4.03;3.63;;;13.90;90.60;;;;;;5372396;26;20884;-62
2024/04/15 03:29:44;;;;;;;7.43;4.10;;;14.00;89.90;;;;;;5365992;26;20512;-62
2024/04/15 03:32:10;;;;;;;6.17;3.67;;;14.00;88.70;;;;;;5370188;26;20478;-62
2024/04/15 03:34:36;;;;;;;4.03;3.47;;;14.00;88.70;;;;;;5373291;26;20312;-62
2024/04/15 03:37:01;;;;;;;4.93;3.50;;;14.00;88.00;;;;;;5366524;26;20218;-63
2024/04/15 03:39:27;;;;;;;5.27;3.50;;;14.10;87.40;;;;;;5365279;26;20297;-62
2024/04/15 03:41:53;;;;;;;4.37;3.43;;;14.10;86.70;;;;;;5372928;26;20230;-62
2024/04/15 03:44:19;;;;;;;5.20;3.30;;;14.10;86.10;;;;;;5366983;26;20273;-62
2024/04/15 03:46:44;;;;;;;6.30;3.20;;;14.10;85.40;;;;;;5368238;26;20471;-62
2024/04/15 03:49:10;;;;;;;5.50;3.33;;;14.10;85.20;;;;;;5364902;26;20360;-63
2024/04/15 03:51:35;;;;;;;5.93;3.97;;;14.20;84.50;;;;;;5372409;26;20677;-62
2024/04/15 03:54:01;;;;;;;5.43;4.10;;;14.20;84.70;;;;;;5364789;26;20269;-63
2024/04/15 03:56:26;;;;;;;8.30;3.80;;;14.10;84.30;;;;;;5368924;26;20372;-57
2024/04/15 03:58:52;;;;;;;5.87;3.53;;;14.10;84.30;;;;;;5368390;26;20265;-57
2024/04/15 04:01:18;;;;;;;4.00;3.47;;;14.20;85.20;;;;;;5366090;26;20246;-57
2024/04/15 04:03:43;;;;;;;5.50;3.40;;;14.20;85.00;;;;;;5369536;26;20576;-58
2024/04/15 04:06:09;;;;;;;5.17;3.37;;;14.20;85.30;;;;;;5369714;26;20304;-62
2024/04/15 04:08:34;;;;;;;5.23;3.60;;;14.20;85.10;;;;;;5363566;26;20241;-64
2024/04/15 04:11:06;;;;;;;6.57;3.30;;;14.20;85.00;;;;;;5357568;26;20276;-64
2024/04/15 04:13:34;;;;;;;8.07;3.70;;;14.20;84.60;;;;;;5395518;26;20229;-62
2024/04/15 04:16:00;;;;;;;4.20;3.33;;;14.20;85.30;;;;;;5367797;26;20460;-62
2024/04/15 04:18:25;;;;;;;7.87;3.97;;;14.10;85.00;;;;;;5365543;26;20448;-63
2024/04/15 04:20:51;;;;;;;8.00;3.70;;;14.10;85.20;;;;;;5359643;26;20280;-64
2024/04/15 04:23:17;;;;;;;7.43;3.70;;;14.10;85.20;;;;;;5363271;26;20280;-68
2024/04/15 04:25:42;;;;;;;5.70;3.50;;;14.10;85.10;;;;;;5368693;26;20233;-69
2024/04/15 04:28:08;;;;;;;8.57;3.73;;;14.10;85.00;;;;;;5363525;26;20273;-62
2024/04/15 04:30:34;;;;;;;9.20;3.97;;;14.10;84.80;;;;;;5372577;26;20280;-62
2024/04/15 04:33:02;;;;;;;8.20;4.03;;;14.10;84.80;;;;;;5370851;26;20757;-67
2024/04/15 04:35:29;;;;;;;7.30;4.17;;;14.10;84.80;;;;;;5363453;26;20619;-69
2024/04/15 04:37:55;;;;;;;8.73;3.90;;;14.10;85.30;;;;;;5357051;26;20475;-68
2024/04/15 04:40:21;;;;;;;5.77;4.07;;;14.00;86.60;;;;;;5369843;26;20464;-68
2024/04/15 04:42:47;;;;;;;3.87;3.47;;;14.10;88.40;;;;;;5369905;26;20237;-67
2024/04/15 04:45:13;;;;;;;6.90;4.33;;;14.00;89.30;;;;;;5359689;26;20280;-68
2024/04/15 04:47:38;;;;;;;5.10;4.10;;;14.00;90.00;;;;;;5374385;26;20460;-68
2024/04/15 04:50:04;;;;;;;7.13;3.40;;;14.00;90.30;;;;;;5363037;26;21193;-60
2024/04/15 04:52:30;;;;;;;4.00;3.57;;;14.00;90.80;;;;;;5364283;26;20241;-60
2024/04/15 04:54:56;;;;;;;7.07;4.70;;;14.00;90.60;;;;;;5365933;26;20279;-60
2024/04/15 04:57:21;;;;;;;5.93;4.53;;;14.00;90.20;;;;;;5369139;26;21029;-70
2024/04/15 04:59:52;;;;;;;10.27;3.77;;;14.00;89.30;;;;;;5370331;26;20252;-69
2024/04/15 05:02:18;;;;;;;8.43;4.20;;;14.00;88.10;;;;;;5367480;26;20233;-71
2024/04/15 05:04:43;;;;;;;11.03;4.20;;;14.00;87.50;;;;;;5370751;26;20548;-69
2024/04/15 05:07:09;;;;;;;5.87;4.00;;;14.00;86.80;;;;;;5369604;26;20257;-69
2024/04/15 05:09:34;;;;;;;8.93;4.20;;;14.00;86.50;;;;;;5374795;26;21247;-69
2024/04/15 05:12:00;;;;;;;8.03;3.87;;;14.00;86.30;;;;;;5373655;26;20234;-70
2024/04/15 05:14:26;;;;;;;9.17;4.87;;;14.00;86.40;;;;;;5373577;26;20261;-70
2024/04/15 05:16:51;;;;;;;5.20;4.20;;;14.00;86.20;;;;;;5375314;26;20230;-69
2024/04/15 05:19:17;;;;;;;5.90;4.87;;;14.00;86.40;;;;;;5371718;26;20230;-69
2024/04/15 05:21:42;;;;;;;10.83;4.17;;;14.00;86.50;;;;;;5376169;26;20277;-69
2024/04/15 05:24:08;;;;;;;6.27;4.40;;;14.00;86.50;;;;;;5373814;26;20221;-69
2024/04/15 05:26:34;;;;;;;9.47;4.50;;;14.00;86.70;;;;;;5366456;26;20385;-70
2024/04/15 05:28:59;;;;;;;8.43;4.50;;;14.00;86.80;;;;;;5373325;26;20260;-69
2024/04/15 05:31:25;;;;;;;12.90;5.30;;;14.10;87.70;;;;;;5365546;26;20311;-69
2024/04/15 05:33:51;;;;;;;8.80;4.67;;;14.00;89.30;;;;;;5374592;26;20242;-69
2024/04/15 05:36:16;;;;;;;8.63;5.00;;;14.00;90.80;;;;;;5368738;26;20800;-69
2024/04/15 05:38:42;;;;;;;7.20;4.00;;;14.00;91.50;;;;;;5372898;26;20248;-69
2024/04/15 05:41:07;;;;;;;12.97;4.20;;;14.00;91.80;;;;;;5371940;26;20265;-68
2024/04/15 05:43:33;;;;;;;7.23;3.93;;;14.00;91.80;;;;;;5367802;26;20235;-69
2024/04/15 05:45:58;;;;;;;8.77;4.53;;;14.00;92.10;;;;;;5373312;26;20269;-69
2024/04/15 05:48:24;;;;;;;6.47;3.93;;;14.00;91.90;;;;;;5371177;26;20798;-69
2024/04/15 05:50:49;;;;;;;6.50;4.73;;;14.00;92.80;;;;;;5374840;26;20230;-69
2024/04/15 05:53:15;;;;;;;6.67;3.63;;;14.00;93.40;;;;;;5370246;26;20237;-69
2024/04/15 05:55:41;;;;;;;5.70;4.30;;;14.00;92.40;;;;;;5370201;26;20269;-69
2024/04/15 05:58:07;;;;;;;5.67;3.77;;;14.00;92.60;;;;;;5373054;26;20275;-69
2024/04/15 06:00:32;;;;;;;17.20;4.67;;;14.10;92.10;;;;;;5375668;26;20225;-69
2024/04/15 06:02:58;;;;;;;5.30;4.23;;;14.10;92.80;;;;;;5368119;26;20268;-69
2024/04/15 06:05:25;;;;;;;8.47;4.60;;;14.10;93.00;;;;;;5368399;26;20303;-70
2024/04/15 06:07:52;;;;;;;5.73;4.10;;;14.10;93.20;;;;;;5366993;26;20226;-69
2024/04/15 06:10:17;;;;;;;5.40;4.30;;;14.10;93.20;;;;;;5372029;26;21329;-68
2024/04/15 06:12:43;;;;;;;10.67;4.70;;;14.10;93.30;;;;;;5362533;26;20469;-70
2024/04/15 06:15:09;;;;;;;9.10;5.13;;;14.10;94.90;;;;;;5373401;26;20619;-68
2024/04/15 06:17:34;;;;;;;6.37;4.50;;;14.10;95.20;;;;;;5372271;26;20225;-69
2024/04/15 06:20:00;;;;;;;6.27;4.27;;;14.10;96.60;;;;;;5366866;26;20342;-69
2024/04/15 06:22:25;;;;;;;6.23;4.53;;;14.10;96.30;;;;;;5366155;26;20319;-69
2024/04/15 06:24:51;;;;;;;8.77;4.63;;;14.20;96.80;;;;;;5373717;26;20293;-69
2024/04/15 06:27:18;;;;;;;9.13;4.43;;;14.20;95.10;;;;;;5368950;26;20261;-69
2024/04/15 06:29:44;;;;;;;5.37;4.43;;;14.20;94.00;;;;;;5367063;26;20268;-69
2024/04/15 06:32:09;;;;;;;4.50;4.10;;;14.20;93.40;;;;;;5374100;26;20448;-69
2024/04/15 06:34:35;;;;;;;6.80;4.60;;;14.20;92.80;;;;;;5372281;26;20273;-69
2024/04/15 06:37:00;;;;;;;9.13;4.27;;;14.30;93.20;;;;;;5367924;26;20230;-69
2024/04/15 06:39:27;;;;;;;6.83;4.53;;;14.30;93.40;;;;;;5363938;26;20395;-70
2024/04/15 06:41:52;;;;;;;6.97;4.23;;;14.30;93.60;;;;;;5366385;26;20323;-69
2024/04/15 06:44:18;;;;;;;7.40;4.57;;;14.30;94.30;;;;;;5366707;26;21244;-69
2024/04/15 06:46:44;;;;;;;10.33;5.00;;;14.30;95.40;;;;;;5374785;26;20225;-69
2024/04/15 06:49:09;;;;;;;8.50;5.00;;;14.20;97.20;;;;;;5370852;26;20338;-70
2024/04/15 06:51:37;;;;;;;6.13;4.63;;;14.20;99.90;;;;;;5362599;26;20269;-70
2024/04/15 06:54:04;;;;;;;13.30;5.07;;;14.20;99.90;;;;;;5368107;26;20238;-70
2024/04/15 06:56:30;;;;;;;7.53;4.73;;;14.20;99.90;;;;;;5372055;26;20464;-69
2024/04/15 06:58:56;;;;;;;9.27;5.30;;;14.10;99.90;;;;;;5370704;26;20455;-68
2024/04/15 07:01:22;;;;;;;16.67;4.97;;;14.10;99.90;;;;;;5371379;26;20513;-69
2024/04/15 07:03:47;;;;;;;7.70;4.40;;;14.20;99.90;;;;;;5367206;26;21043;-69
2024/04/15 07:06:13;;;;;;;13.43;5.03;;;14.20;99.90;;;;;;5370885;26;20674;-69
2024/04/15 07:08:39;;;;;;;11.63;5.70;;;14.20;99.90;;;;;;5371749;26;20292;-69
2024/04/15 07:11:04;;;;;;;13.30;5.87;;;14.20;99.90;;;;;;5373239;26;20490;-70
2024/04/15 07:13:33;;;;;;;7.10;5.17;;;14.20;99.90;;;;;;5371088;26;21062;-69
2024/04/15 07:15:58;;;;;;;6.30;4.80;;;14.30;99.90;;;;;;5370914;26;20222;-69
2024/04/15 07:18:24;;;;;;;8.23;4.80;;;14.20;99.90;;;;;;5372392;26;20511;-69
2024/04/15 07:20:49;;;;;;;7.77;4.93;;;14.30;99.90;;;;;;5370179;26;20758;-69
2024/04/15 07:23:15;;;;;;;6.87;4.70;;;14.30;99.90;;;;;;5361583;26;20233;-69
2024/04/15 07:25:41;;;;;;;9.97;4.63;;;14.40;99.90;;;;;;5372024;26;20269;-69
2024/04/15 07:28:06;;;;;;;16.50;5.27;;;14.40;99.90;;;;;;5370687;26;20806;-69
2024/04/15 07:30:32;;;;;;;7.93;5.10;;;14.50;99.90;;;;;;5367679;26;20242;-70
2024/04/15 07:32:58;;;;;;;7.33;4.53;;;14.60;99.90;;;;;;5361443;26;20301;-69
2024/04/15 07:35:23;;;;;;;9.57;5.20;;;14.70;99.90;;;;;;5372359;26;20281;-69
2024/04/15 07:37:49;;;;;;;6.40;4.20;;;14.80;99.90;;;;;;5370011;26;20222;-68
2024/04/15 07:40:14;;;;;;;10.57;5.30;;;14.80;99.90;;;;;;5362669;26;22138;-69
2024/04/15 07:42:40;;;;;;;12.70;6.30;;;14.90;99.90;;;;;;5372780;26;20299;-69
2024/04/15 07:45:06;;;;;;;11.70;5.80;;;14.80;99.90;;;;;;5371000;26;20214;-69
2024/04/15 07:47:32;;;;;;;7.83;4.80;;;14.80;99.90;;;;;;5373351;26;20264;-69
2024/04/15 07:49:58;;;;;;;7.33;5.60;;;14.80;99.90;;;;;;5372538;26;20451;-68
2024/04/15 07:52:23;;;;;;;11.43;5.00;;;14.80;99.90;;;;;;5369857;26;20284;-69
2024/04/15 07:54:50;;;;;;;10.10;5.57;;;14.70;99.90;;;;;;5371012;26;20222;-68
2024/04/15 07:57:16;;;;;;;18.77;5.80;;;14.60;99.90;;;;;;5356972;26;20241;-69
2024/04/15 07:59:41;;;;;;;8.17;5.00;;;14.50;99.90;;;;;;5366188;26;20526;-69
2024/04/15 08:02:08;;;;;;;5.10;3.60;;;14.40;99.90;;;;;;5372102;26;20218;-69
2024/04/15 08:04:35;;;;;;;5.17;3.10;;;14.20;99.90;;;;;;5367393;26;20237;-69
2024/04/15 08:07:00;;;;;;;5.70;3.87;;;14.00;99.90;;;;;;5370229;26;21221;-69
2024/04/15 08:09:26;;;;;;;5.90;3.27;;;13.90;99.90;;;;;;5365462;26;20463;-68
2024/04/15 08:11:52;;;;;;;5.50;3.47;;;13.70;99.90;;;;;;5365077;26;20234;-69
2024/04/15 08:14:20;;;;;;;7.17;3.90;;;13.50;99.90;;;;;;5372755;26;20222;-69
2024/04/15 08:16:46;;;;;;;5.87;3.80;;;13.40;99.90;;;;;;5370133;26;20279;-68
2024/04/15 08:19:11;;;;;;;8.30;3.40;;;13.40;99.90;;;;;;5370620;26;21288;-69
2024/04/15 08:21:37;;;;;;;4.70;3.60;;;13.40;99.90;;;;;;5370948;26;20287;-68
2024/04/15 08:24:03;;;;;;;6.40;3.77;;;13.40;99.90;;;;;;5358310;26;20241;-69
2024/04/15 08:26:28;;;;;;;5.37;3.80;;;13.30;99.90;;;;;;5372927;26;20296;-68
2024/04/15 08:28:54;;;;;;;4.40;3.63;;;13.30;99.90;;;;;;5369490;26;20221;-69
2024/04/15 08:31:20;;;;;;;7.03;4.47;;;13.40;99.90;;;;;;5371862;26;20222;-69
2024/04/15 08:33:45;;;;;;;7.80;4.03;;;13.40;99.90;;;;;;5369270;26;20245;-69
2024/04/15 08:36:12;;;;;;;5.43;4.30;;;13.50;99.90;;;;;;5370987;26;20264;-69
2024/04/15 08:38:43;;;;;;;8.63;3.97;;;13.50;99.90;;;;;;5362399;26;20235;-69
2024/04/15 08:41:20;;;;;;;5.80;4.60;;;13.50;99.90;;;;;;5361265;26;21017;-69
2024/04/15 08:43:47;;;;;;;7.50;4.67;;;13.50;99.90;;;;;;5370016;26;20451;-68
2024/04/15 08:46:26;;;;;;;7.47;4.67;;;13.50;99.90;;;;;;5372066;26;21013;-69
2024/04/15 08:48:52;;;;;;;9.43;4.53;;;13.50;99.90;;;;;;5364220;26;20469;-69
2024/04/15 08:51:19;;;;;;;6.97;4.70;;;13.50;99.90;;;;;;5369852;26;20520;-69
2024/04/15 08:53:46;;;;;;;6.70;4.80;;;13.40;99.90;;;;;;5366892;26;20264;-69
2024/04/15 08:56:13;;;;;;;6.17;4.70;;;13.40;99.90;;;;;;5369523;26;20472;-69
2024/04/15 08:58:40;;;;;;;13.33;4.70;;;13.40;99.90;;;;;;5370477;26;20855;-69
2024/04/15 09:01:08;;;;;;;12.57;4.90;;;13.50;99.90;;;;;;5367104;26;20459;-69
2024/04/15 09:03:34;;;;;;;6.30;4.90;;;13.50;99.90;;;;;;5370750;26;20523;-69
2024/04/15 09:06:00;;;;;;;21.87;5.10;;;13.60;99.90;;;;;;5365462;26;21056;-68
2024/04/15 09:08:25;;;;;;;9.60;5.50;;;13.70;99.90;;;;;;5366555;26;20506;-68
2024/04/15 09:10:51;;;;;;;6.13;4.60;;;13.70;99.90;;;;;;5370964;26;20226;-69
2024/04/15 09:13:17;;;;;;;6.27;4.53;;;13.80;99.90;;;;;;5369953;26;20615;-68
2024/04/15 09:15:47;;;;;;;6.70;4.83;;;13.80;99.90;;;;;;5369377;26;21020;-69
2024/04/15 09:18:13;;;;;;;5.73;4.97;;;13.80;99.90;;;;;;5367822;26;20249;-68
2024/04/15 09:20:38;;;;;;;8.30;4.67;;;13.80;99.90;;;;;;5372022;26;20524;-68
2024/04/15 09:23:09;;;;;;;6.07;4.70;;;13.80;99.90;;;;;;5368460;26;20993;-68
2024/04/15 09:25:35;;;;;;;7.87;5.03;;;13.90;99.90;;;;;;5365140;26;20226;-68
2024/04/15 09:28:04;;;;;;;9.97;5.03;;;13.90;99.90;;;;;;5370369;26;21129;-68
2024/04/15 09:30:30;;;;;;;7.60;5.07;;;13.90;99.90;;;;;;5373715;26;20234;-68
2024/04/15 09:32:57;;;;;;;10.00;5.90;;;14.00;99.90;;;;;;5374490;26;20504;-68
2024/04/15 09:35:23;;;;;;;10.40;7.00;;;14.00;99.90;;;;;;5370138;26;20464;-68
2024/04/15 09:37:49;;;;;;;10.83;8.80;;;14.00;99.90;;;;;;5374931;26;20526;-68
2024/04/15 09:40:20;;;;;;;6.77;5.00;;;14.10;99.90;;;;;;5368252;26;20235;-68
2024/04/15 09:42:46;;;;;;;8.43;5.57;;;14.10;99.90;;;;;;5371325;26;20464;-69
2024/04/15 09:45:12;;;;;;;8.20;5.83;;;14.20;99.90;;;;;;5368899;26;21108;-69
2024/04/15 09:47:42;;;;;;;13.30;5.40;;;14.20;99.90;;;;;;5367747;26;20463;-68
2024/04/15 09:50:08;;;;;;;7.60;5.23;;;14.30;99.90;;;;;;5351719;26;20298;-68
2024/04/15 09:52:39;;;;;;;13.20;4.53;;;14.30;99.90;;;;;;5365180;26;20464;-68
2024/04/15 09:55:08;;;;;;;5.70;4.80;;;14.40;99.90;;;;;;5369899;26;20782;-67
2024/04/15 09:57:41;;;;;;;7.23;5.03;;;14.50;99.90;;;;;;5371747;26;20468;-68
2024/04/15 10:00:13;;;;;;;5.93;4.67;;;14.60;99.90;;;;;;5370442;26;20853;-68
2024/04/15 10:02:53;;;;;;;11.07;5.40;;;14.70;99.90;;;;;;5370238;26;20463;-68
2024/04/15 10:05:23;;;;;;;10.00;4.63;;;14.90;99.90;;;;;;5367941;26;20448;-68
2024/04/15 10:07:51;;;;;;;4.70;4.00;;;15.00;99.90;;;;;;5362748;26;20457;-66
2024/04/15 10:10:19;;;;;;;6.73;4.50;;;15.10;99.90;;;;;;5358984;26;20460;-68
2024/04/15 10:12:52;;;;;;;8.10;4.13;;;15.20;99.90;;;;;;5372992;26;20520;-67
2024/04/15 10:15:20;;;;;;;5.70;4.70;;;15.20;99.90;;;;;;5374449;26;20495;-68
2024/04/15 10:17:56;;;;;;;5.67;4.83;;;15.20;99.90;;;;;;5367834;26;20473;-67
2024/04/15 10:20:30;;;;;;;10.30;4.80;;;15.30;99.90;;;;;;5372028;26;20464;-67
2024/04/15 10:22:59;;;;;;;9.03;4.93;;;15.40;99.90;;;;;;5367679;26;20471;-68
2024/04/15 10:25:26;;;;;;;6.10;4.80;;;15.40;99.90;;;;;;5364161;26;20452;-67
2024/04/15 10:27:52;;;;;;;6.90;4.57;;;15.30;99.90;;;;;;5359017;26;20524;-67
2024/04/15 10:30:19;;;;;;;8.97;4.30;;;15.30;99.90;;;;;;5372314;26;20475;-67
2024/04/15 10:32:45;;;;;;;5.63;3.90;;;15.20;99.90;;;;;;5371884;26;20331;-67
2024/04/15 10:35:22;;;;;;;6.07;4.20;;;15.10;99.90;;;;;;5370010;26;20496;-67
2024/04/15 10:37:51;;;;;;;5.73;4.20;;;15.10;99.90;;;;;;5372001;26;20992;-67
2024/04/15 10:40:20;;;;;;;6.63;3.83;;;15.00;99.90;;;;;;5368774;26;20544;-67
2024/04/15 10:42:45;;;;;;;11.53;4.50;;;15.10;99.90;;;;;;5368842;26;20527;-68
2024/04/15 10:45:17;;;;;;;6.33;4.87;;;15.20;99.90;;;;;;5369289;26;20568;-67
2024/04/15 10:47:48;;;;;;;5.30;4.17;;;15.20;99.90;;;;;;5366544;26;20284;-66
2024/04/15 10:50:15;;;;;;;7.37;4.30;;;15.30;99.90;;;;;;5366096;26;20436;-68
2024/04/15 10:52:40;;;;;;;7.93;4.30;;;15.40;99.90;;;;;;5368738;26;20573;-66
2024/04/15 10:55:07;;;;;;;5.70;4.00;;;15.40;99.90;;;;;;5369773;26;20455;-67
2024/04/15 10:57:33;;;;;;;7.07;4.53;;;15.30;99.90;;;;;;5369582;26;20339;-67
2024/04/15 10:59:59;;;;;;;4.87;3.90;;;15.30;99.90;;;;;;5368789;26;20982;-66
2024/04/15 11:02:25;;;;;;;5.97;4.40;;;15.30;99.90;;;;;;5365933;26;20222;-67
2024/04/15 11:04:50;;;;;;;4.73;4.10;;;15.40;99.90;;;;;;5368055;26;20816;-67
2024/04/15 11:07:20;;;;;;;6.20;4.27;;;15.50;99.90;;;;;;5366349;26;20231;-67
2024/04/15 11:09:47;;;;;;;6.23;4.13;;;15.50;99.90;;;;;;5366878;26;20234;-67
2024/04/15 11:12:12;;;;;;;6.70;3.40;;;15.50;99.90;;;;;;5364522;26;21201;-67
2024/04/15 11:14:38;;;;;;;3.87;3.27;;;15.50;99.90;;;;;;5369984;26;20525;-68
2024/04/15 11:17:04;;;;;;;4.37;3.30;;;15.40;99.90;;;;;;5372311;26;20225;-68
2024/04/15 11:19:30;;;;;;;5.13;3.20;;;15.30;99.90;;;;;;5369549;26;20265;-67
2024/04/15 11:22:06;;;;;;;5.10;3.23;;;15.30;99.90;;;;;;5367555;26;20327;-66
2024/04/15 11:24:34;;;;;;;6.47;3.83;;;15.30;99.90;;;;;;5368741;26;20836;-67
2024/04/15 11:27:07;;;;;;;7.43;3.50;;;15.30;98.50;;;;;;5368968;26;20512;-67
2024/04/15 11:29:33;;;;;;;9.57;3.60;;;15.30;98.70;;;;;;5365024;26;20461;-66
2024/04/15 11:31:59;;;;;;;6.17;3.17;;;15.30;88.70;;;;;;5358692;26;20464;-66
2024/04/15 11:34:25;;;;;;;10.60;2.90;;;15.40;81.10;;;;;;5364498;26;20615;-67
2024/04/15 11:36:50;;;;;;;9.13;3.33;;;15.50;83.00;;;;;;5368895;26;20233;-66
2024/04/15 11:39:16;;;;;;;9.30;2.90;;;15.60;79.90;;;;;;5363440;26;20262;-66
2024/04/15 11:41:44;;;;;;;4.83;2.80;;;15.80;79.70;;;;;;5364501;26;20277;-67
2024/04/15 11:44:10;;;;;;;11.73;3.00;;;15.90;76.60;;;;;;5366365;26;20229;-66
2024/04/15 11:46:42;;;;;;;5.30;2.80;;;16.20;72.70;;;;;;5368612;26;20516;-67
2024/04/15 11:49:08;;;;;;;11.13;3.33;;;16.40;72.90;;;;;;5367553;26;20515;-66
2024/04/15 11:51:35;;;;;;;8.30;2.90;;;16.90;72.60;;;;;;5362311;26;20463;-66
2024/04/15 11:54:01;;;;;;;6.13;2.23;;;17.30;67.20;;;;;;5369666;26;20924;-66
2024/04/15 11:56:27;;;;;;;11.53;2.87;;;17.60;65.90;;;;;;5369290;26;20504;-66
2024/04/15 11:58:52;;;;;;;6.77;2.83;;;17.70;63.70;;;;;;5369224;26;20218;-66
2024/04/15 12:01:18;;;;;;;7.83;2.40;;;17.70;62.40;;;;;;5364911;26;20284;-67
2024/04/15 12:03:44;;;;;;;11.47;3.07;;;18.00;62.30;;;;;;5371168;26;20333;-66
2024/04/15 12:06:10;;;;;;;4.63;2.57;;;18.20;63.00;;;;;;5369528;26;20268;-66
2024/04/15 12:08:37;;;;;;;6.50;2.80;;;18.50;63.30;;;;;;5365600;26;20721;-66
2024/04/15 12:11:12;;;;;;;5.90;2.63;;;18.80;59.80;;;;;;5367289;26;22500;-66
2024/04/15 12:13:38;;;;;;;5.00;2.20;;;19.00;57.80;;;;;;5369965;26;20464;-67
2024/04/15 12:16:05;;;;;;;4.63;2.70;;;19.20;58.00;;;;;;5363795;26;20456;-66
2024/04/15 12:18:31;;;;;;;7.67;2.97;;;19.30;57.10;;;;;;5366963;26;21980;-67
2024/04/15 12:20:56;;;;;;;8.20;2.27;;;19.20;58.30;;;;;;5366782;26;21009;-67
2024/04/15 12:23:22;;;;;;;5.50;2.50;;;19.10;58.10;;;;;;5363773;26;20459;-67
2024/04/15 12:25:48;;;;;;;6.93;2.53;;;18.90;57.20;;;;;;5366586;26;20289;-67
2024/04/15 12:28:14;;;;;;;11.70;2.80;;;18.60;57.30;;;;;;5364072;26;20225;-66
2024/04/15 12:30:39;;;;;;;6.60;2.40;;;18.30;58.20;;;;;;5366476;26;20245;-66
2024/04/15 12:33:05;;;;;;;7.83;3.00;;;18.00;58.80;;;;;;5369439;26;20533;-66
2024/04/15 12:35:31;;;;;;;10.83;2.60;;;17.90;59.10;;;;;;5371980;26;20276;-66
2024/04/15 12:37:56;;;;;;;4.77;2.40;;;18.00;57.40;;;;;;5366169;26;20800;-67
2024/04/15 12:40:22;;;;;;;6.80;2.87;;;18.20;57.20;;;;;;5370147;26;20273;-66